sensor_id;sensor_type;location;lat;lon;timestamp;temperature;humidity
38910;DHT22;24676;51.360;12.354;2024-01-11T00:00:12;-9.60;99.90
38910;DHT22;24676;51.360;12.354;2024-01-11T00:02:56;-9.60;99.90
38910;DHT22;24676;51.360;12.354;2024-01-11T00:05:40;-9.70;99.90
38910;DHT22;24676;51.360;12.354;2024-01-11T00:08:25;-9.70;99.90
38910;DHT22;24676;51.360;12.354;2024-01-11T00:11:10;-9.70;99.90
38910;DHT22;24676;51.360;12.354;2024-01-11T00:13:53;-9.60;99.90
38910;DHT22;24676;51.360;12.354;2024-01-11T00:16:38;-9.70;99.90
38910;DHT22;24676;51.360;12.354;2024-01-11T00:19:22;-9.70;99.90
38910;DHT22;24676;51.360;12.354;2024-01-11T00:22:06;-9.70;99.90
38910;DHT22;24676;51.360;12.354;2024-01-11T00:24:50;-9.70;99.90
38910;DHT22;24676;51.360;12.354;2024-01-11T00:27:35;-9.70;99.90
38910;DHT22;24676;51.360;12.354;2024-01-11T00:30:19;-9.70;99.90
38910;DHT22;24676;51.360;12.354;2024-01-11T00:33:03;-9.80;99.90
38910;DHT22;24676;51.360;12.354;2024-01-11T00:35:47;-9.70;99.90
38910;DHT22;24676;51.360;12.354;2024-01-11T00:38:31;-9.70;99.90
38910;DHT22;24676;51.360;12.354;2024-01-11T00:41:16;-9.70;99.90
38910;DHT22;24676;51.360;12.354;2024-01-11T00:44:00;-9.70;99.90
38910;DHT22;24676;51.360;12.354;2024-01-11T00:46:44;-9.70;99.90
38910;DHT22;24676;51.360;12.354;2024-01-11T00:49:28;-9.70;99.90
38910;DHT22;24676;51.360;12.354;2024-01-11T00:52:12;-9.80;99.90
38910;DHT22;24676;51.360;12.354;2024-01-11T00:54:58;-9.80;99.90
38910;DHT22;24676;51.360;12.354;2024-01-11T00:57:42;-9.80;99.90
38910;DHT22;24676;51.360;12.354;2024-01-11T01:00:26;-9.80;99.90
38910;DHT22;24676;51.360;12.354;2024-01-11T01:03:10;-9.80;99.90
38910;DHT22;24676;51.360;12.354;2024-01-11T01:05:54;-9.80;99.90
38910;DHT22;24676;51.360;12.354;2024-01-11T01:08:39;-9.80;99.90
38910;DHT22;24676;51.360;12.354;2024-01-11T01:11:23;-9.80;99.90
38910;DHT22;24676;51.360;12.354;2024-01-11T01:14:07;-9.80;99.90
38910;DHT22;24676;51.360;12.354;2024-01-11T01:16:51;-9.80;99.90
38910;DHT22;24676;51.360;12.354;2024-01-11T01:19:35;-9.90;99.90
38910;DHT22;24676;51.360;12.354;2024-01-11T01:22:20;-9.90;99.90
38910;DHT22;24676;51.360;12.354;2024-01-11T01:25:04;-9.90;99.90
38910;DHT22;24676;51.360;12.354;2024-01-11T01:27:48;-9.90;99.90
38910;DHT22;24676;51.360;12.354;2024-01-11T01:30:32;-9.90;99.90
38910;DHT22;24676;51.360;12.354;2024-01-11T01:33:17;-9.90;99.90
38910;DHT22;24676;51.360;12.354;2024-01-11T01:36:01;-9.80;99.90
38910;DHT22;24676;51.360;12.354;2024-01-11T01:38:45;-9.80;99.90
38910;DHT22;24676;51.360;12.354;2024-01-11T01:41:29;-9.80;99.90
38910;DHT22;24676;51.360;12.354;2024-01-11T01:44:13;-9.80;99.90
38910;DHT22;24676;51.360;12.354;2024-01-11T01:46:58;-9.80;99.90
38910;DHT22;24676;51.360;12.354;2024-01-11T01:49:42;-9.80;99.90
38910;DHT22;24676;51.360;12.354;2024-01-11T01:52:26;-9.80;99.90
38910;DHT22;24676;51.360;12.354;2024-01-11T01:55:11;-9.80;99.90
38910;DHT22;24676;51.360;12.354;2024-01-11T01:57:55;-9.80;99.90
38910;DHT22;24676;51.360;12.354;2024-01-11T02:00:40;-9.80;99.90
38910;DHT22;24676;51.360;12.354;2024-01-11T02:03:26;-9.90;99.90
38910;DHT22;24676;51.360;12.354;2024-01-11T02:06:11;-9.80;99.90
38910;DHT22;24676;51.360;12.354;2024-01-11T02:08:56;-9.80;99.90
38910;DHT22;24676;51.360;12.354;2024-01-11T02:11:43;-9.80;99.90
38910;DHT22;24676;51.360;12.354;2024-01-11T02:14:27;-9.80;99.90
38910;DHT22;24676;51.360;12.354;2024-01-11T02:17:11;-9.90;99.90
38910;DHT22;24676;51.360;12.354;2024-01-11T02:19:58;-9.90;99.90
38910;DHT22;24676;51.360;12.354;2024-01-11T02:22:43;-9.90;99.90
38910;DHT22;24676;51.360;12.354;2024-01-11T02:25:28;-9.90;99.90
38910;DHT22;24676;51.360;12.354;2024-01-11T02:28:13;-9.90;99.90
38910;DHT22;24676;51.360;12.354;2024-01-11T02:30:57;-9.90;99.90
38910;DHT22;24676;51.360;12.354;2024-01-11T02:33:41;-9.90;99.90
38910;DHT22;24676;51.360;12.354;2024-01-11T02:36:26;-9.90;99.90
38910;DHT22;24676;51.360;12.354;2024-01-11T02:39:11;-9.90;99.90
38910;DHT22;24676;51.360;12.354;2024-01-11T02:41:56;-9.90;99.90
38910;DHT22;24676;51.360;12.354;2024-01-11T02:44:40;-9.90;99.90
38910;DHT22;24676;51.360;12.354;2024-01-11T02:47:24;-9.90;99.90
38910;DHT22;24676;51.360;12.354;2024-01-11T02:50:08;-9.90;99.90
38910;DHT22;24676;51.360;12.354;2024-01-11T02:52:52;-9.80;99.90
38910;DHT22;24676;51.360;12.354;2024-01-11T02:55:37;-9.80;99.90
38910;DHT22;24676;51.360;12.354;2024-01-11T02:58:21;-9.80;99.90
38910;DHT22;24676;51.360;12.354;2024-01-11T03:01:05;-9.80;99.90
38910;DHT22;24676;51.360;12.354;2024-01-11T03:03:49;-9.80;99.90
38910;DHT22;24676;51.360;12.354;2024-01-11T03:06:33;-9.80;99.90
38910;DHT22;24676;51.360;12.354;2024-01-11T03:09:18;-9.90;99.90
38910;DHT22;24676;51.360;12.354;2024-01-11T03:12:02;-9.90;99.90
38910;DHT22;24676;51.360;12.354;2024-01-11T03:14:46;-9.90;99.90
38910;DHT22;24676;51.360;12.354;2024-01-11T03:17:30;-9.90;99.90
38910;DHT22;24676;51.360;12.354;2024-01-11T03:20:14;-9.90;99.90
38910;DHT22;24676;51.360;12.354;2024-01-11T03:22:59;-10.00;99.90
38910;DHT22;24676;51.360;12.354;2024-01-11T03:25:43;-9.90;99.90
38910;DHT22;24676;51.360;12.354;2024-01-11T03:28:28;-10.00;99.90
38910;DHT22;24676;51.360;12.354;2024-01-11T03:31:12;-10.00;99.90
38910;DHT22;24676;51.360;12.354;2024-01-11T03:33:56;-10.00;99.90
38910;DHT22;24676;51.360;12.354;2024-01-11T03:36:40;-10.00;99.90
38910;DHT22;24676;51.360;12.354;2024-01-11T03:39:25;-10.00;99.90
38910;DHT22;24676;51.360;12.354;2024-01-11T03:42:09;-10.00;99.90
38910;DHT22;24676;51.360;12.354;2024-01-11T03:44:53;-10.00;99.90
38910;DHT22;24676;51.360;12.354;2024-01-11T03:47:37;-10.00;99.90
38910;DHT22;24676;51.360;12.354;2024-01-11T03:50:22;-10.00;99.90
38910;DHT22;24676;51.360;12.354;2024-01-11T03:53:06;-9.90;99.90
38910;DHT22;24676;51.360;12.354;2024-01-11T03:55:50;-9.90;99.90
38910;DHT22;24676;51.360;12.354;2024-01-11T03:58:35;-9.70;99.90
38910;DHT22;24676;51.360;12.354;2024-01-11T04:01:19;-9.70;99.90
38910;DHT22;24676;51.360;12.354;2024-01-11T04:04:04;-9.70;99.90
38910;DHT22;24676;51.360;12.354;2024-01-11T04:06:48;-9.70;99.90
38910;DHT22;24676;51.360;12.354;2024-01-11T04:09:36;-9.70;99.90
38910;DHT22;24676;51.360;12.354;2024-01-11T04:12:20;-9.80;99.90
38910;DHT22;24676;51.360;12.354;2024-01-11T04:15:04;-9.80;99.90
38910;DHT22;24676;51.360;12.354;2024-01-11T04:17:48;-9.80;99.90
38910;DHT22;24676;51.360;12.354;2024-01-11T04:20:33;-9.80;99.90
38910;DHT22;24676;51.360;12.354;2024-01-11T04:23:17;-9.80;99.90
38910;DHT22;24676;51.360;12.354;2024-01-11T04:26:02;-9.90;99.90
38910;DHT22;24676;51.360;12.354;2024-01-11T04:28:46;-9.90;99.90
38910;DHT22;24676;51.360;12.354;2024-01-11T04:31:30;-9.90;99.90
38910;DHT22;24676;51.360;12.354;2024-01-11T04:34:14;-9.90;99.90
38910;DHT22;24676;51.360;12.354;2024-01-11T04:36:58;-10.00;99.90
38910;DHT22;24676;51.360;12.354;2024-01-11T04:39:42;-10.00;99.90
38910;DHT22;24676;51.360;12.354;2024-01-11T04:42:27;-10.00;99.90
38910;DHT22;24676;51.360;12.354;2024-01-11T04:45:11;-10.00;99.90
38910;DHT22;24676;51.360;12.354;2024-01-11T04:47:55;-10.00;99.90
38910;DHT22;24676;51.360;12.354;2024-01-11T04:50:40;-10.00;99.90
38910;DHT22;24676;51.360;12.354;2024-01-11T04:53:24;-10.00;99.90
38910;DHT22;24676;51.360;12.354;2024-01-11T04:56:09;-10.00;99.90
38910;DHT22;24676;51.360;12.354;2024-01-11T04:58:53;-10.00;99.90
38910;DHT22;24676;51.360;12.354;2024-01-11T05:01:38;-9.90;99.90
38910;DHT22;24676;51.360;12.354;2024-01-11T05:04:22;-9.90;99.90
38910;DHT22;24676;51.360;12.354;2024-01-11T05:07:06;-9.90;99.90
38910;DHT22;24676;51.360;12.354;2024-01-11T05:09:50;-9.90;99.90
38910;DHT22;24676;51.360;12.354;2024-01-11T05:12:34;-9.70;99.90
38910;DHT22;24676;51.360;12.354;2024-01-11T05:15:20;-9.50;99.90
38910;DHT22;24676;51.360;12.354;2024-01-11T05:18:04;-9.30;99.90
38910;DHT22;24676;51.360;12.354;2024-01-11T05:20:48;-9.40;99.90
38910;DHT22;24676;51.360;12.354;2024-01-11T05:23:33;-9.40;99.90
38910;DHT22;24676;51.360;12.354;2024-01-11T05:26:19;-9.50;99.90
38910;DHT22;24676;51.360;12.354;2024-01-11T05:29:03;-9.60;99.90
38910;DHT22;24676;51.360;12.354;2024-01-11T05:31:48;-9.50;99.90
38910;DHT22;24676;51.360;12.354;2024-01-11T05:34:32;-9.50;99.90
38910;DHT22;24676;51.360;12.354;2024-01-11T05:37:17;-9.50;99.90
38910;DHT22;24676;51.360;12.354;2024-01-11T05:40:01;-9.50;99.90
38910;DHT22;24676;51.360;12.354;2024-01-11T05:42:45;-9.50;99.90
38910;DHT22;24676;51.360;12.354;2024-01-11T05:45:29;-9.60;99.90
38910;DHT22;24676;51.360;12.354;2024-01-11T05:48:14;-9.60;99.90
38910;DHT22;24676;51.360;12.354;2024-01-11T05:51:00;-9.50;99.90
38910;DHT22;24676;51.360;12.354;2024-01-11T05:53:45;-9.30;99.90
38910;DHT22;24676;51.360;12.354;2024-01-11T05:56:29;-9.30;99.90
38910;DHT22;24676;51.360;12.354;2024-01-11T05:59:13;-9.40;99.90
38910;DHT22;24676;51.360;12.354;2024-01-11T06:01:57;-9.40;99.90
38910;DHT22;24676;51.360;12.354;2024-01-11T06:04:45;-9.50;99.90
38910;DHT22;24676;51.360;12.354;2024-01-11T06:07:31;-9.60;99.90
38910;DHT22;24676;51.360;12.354;2024-01-11T06:10:15;-9.60;99.90
38910;DHT22;24676;51.360;12.354;2024-01-11T06:12:59;-9.60;99.90
38910;DHT22;24676;51.360;12.354;2024-01-11T06:15:43;-9.60;99.90
38910;DHT22;24676;51.360;12.354;2024-01-11T06:18:28;-9.70;99.90
38910;DHT22;24676;51.360;12.354;2024-01-11T06:21:12;-9.60;99.90
38910;DHT22;24676;51.360;12.354;2024-01-11T06:23:56;-9.70;99.90
38910;DHT22;24676;51.360;12.354;2024-01-11T06:26:40;-9.70;99.90
38910;DHT22;24676;51.360;12.354;2024-01-11T06:29:25;-9.70;99.90
38910;DHT22;24676;51.360;12.354;2024-01-11T06:32:09;-9.70;99.90
38910;DHT22;24676;51.360;12.354;2024-01-11T06:34:53;-9.70;99.90
38910;DHT22;24676;51.360;12.354;2024-01-11T06:37:37;-9.60;99.90
38910;DHT22;24676;51.360;12.354;2024-01-11T06:40:21;-9.60;99.90
38910;DHT22;24676;51.360;12.354;2024-01-11T06:43:05;-9.50;99.90
38910;DHT22;24676;51.360;12.354;2024-01-11T06:45:50;-9.50;99.90
38910;DHT22;24676;51.360;12.354;2024-01-11T06:48:34;-9.50;99.90
38910;DHT22;24676;51.360;12.354;2024-01-11T06:51:21;-9.50;99.90
38910;DHT22;24676;51.360;12.354;2024-01-11T06:54:06;-9.30;99.90
38910;DHT22;24676;51.360;12.354;2024-01-11T06:56:50;-9.30;99.90
38910;DHT22;24676;51.360;12.354;2024-01-11T06:59:34;-9.20;99.90
38910;DHT22;24676;51.360;12.354;2024-01-11T07:02:19;-9.20;99.90
38910;DHT22;24676;51.360;12.354;2024-01-11T07:05:03;-9.20;99.90
38910;DHT22;24676;51.360;12.354;2024-01-11T07:07:48;-9.10;99.90
38910;DHT22;24676;51.360;12.354;2024-01-11T07:10:32;-9.00;99.90
38910;DHT22;24676;51.360;12.354;2024-01-11T07:13:16;-8.90;99.90
38910;DHT22;24676;51.360;12.354;2024-01-11T07:16:01;-8.80;99.90
38910;DHT22;24676;51.360;12.354;2024-01-11T07:18:46;-8.70;99.90
38910;DHT22;24676;51.360;12.354;2024-01-11T07:21:30;-8.60;99.90
38910;DHT22;24676;51.360;12.354;2024-01-11T07:24:15;-8.60;99.90
38910;DHT22;24676;51.360;12.354;2024-01-11T07:26:59;-8.50;99.90
38910;DHT22;24676;51.360;12.354;2024-01-11T07:29:43;-8.50;99.90
38910;DHT22;24676;51.360;12.354;2024-01-11T07:32:28;-8.40;99.90
38910;DHT22;24676;51.360;12.354;2024-01-11T07:35:13;-8.40;99.90
38910;DHT22;24676;51.360;12.354;2024-01-11T07:37:57;-8.40;99.90
38910;DHT22;24676;51.360;12.354;2024-01-11T07:40:41;-8.40;99.90
38910;DHT22;24676;51.360;12.354;2024-01-11T07:43:26;-8.30;99.90
38910;DHT22;24676;51.360;12.354;2024-01-11T07:46:12;-8.40;99.90
38910;DHT22;24676;51.360;12.354;2024-01-11T07:48:56;-8.30;99.90
38910;DHT22;24676;51.360;12.354;2024-01-11T07:51:40;-8.00;99.90
38910;DHT22;24676;51.360;12.354;2024-01-11T07:54:25;-7.70;99.90
38910;DHT22;24676;51.360;12.354;2024-01-11T07:57:09;-7.60;99.90
38910;DHT22;24676;51.360;12.354;2024-01-11T07:59:53;-7.50;99.90
38910;DHT22;24676;51.360;12.354;2024-01-11T08:02:37;-7.40;99.90
38910;DHT22;24676;51.360;12.354;2024-01-11T08:05:21;-7.30;99.90
38910;DHT22;24676;51.360;12.354;2024-01-11T08:08:06;-7.40;99.90
38910;DHT22;24676;51.360;12.354;2024-01-11T08:10:50;-7.40;99.90
38910;DHT22;24676;51.360;12.354;2024-01-11T08:13:35;-7.20;99.90
38910;DHT22;24676;51.360;12.354;2024-01-11T08:16:21;-7.00;99.90
38910;DHT22;24676;51.360;12.354;2024-01-11T08:19:05;-6.70;99.90
38910;DHT22;24676;51.360;12.354;2024-01-11T08:21:50;-6.50;99.90
38910;DHT22;24676;51.360;12.354;2024-01-11T08:24:34;-6.20;99.90
38910;DHT22;24676;51.360;12.354;2024-01-11T08:27:19;-6.00;99.90
38910;DHT22;24676;51.360;12.354;2024-01-11T08:30:03;-5.90;99.90
38910;DHT22;24676;51.360;12.354;2024-01-11T08:32:48;-5.80;99.90
38910;DHT22;24676;51.360;12.354;2024-01-11T08:35:32;-5.70;99.90
38910;DHT22;24676;51.360;12.354;2024-01-11T08:38:17;-5.60;99.90
38910;DHT22;24676;51.360;12.354;2024-01-11T08:41:01;-5.50;99.90
38910;DHT22;24676;51.360;12.354;2024-01-11T08:43:47;-5.30;99.90
38910;DHT22;24676;51.360;12.354;2024-01-11T08:46:31;-5.30;99.90
38910;DHT22;24676;51.360;12.354;2024-01-11T08:49:17;-5.30;99.90
38910;DHT22;24676;51.360;12.354;2024-01-11T08:52:01;-5.30;99.90
38910;DHT22;24676;51.360;12.354;2024-01-11T08:54:46;-5.20;99.90
38910;DHT22;24676;51.360;12.354;2024-01-11T08:57:30;-5.10;99.90
38910;DHT22;24676;51.360;12.354;2024-01-11T09:00:15;-4.90;99.90
38910;DHT22;24676;51.360;12.354;2024-01-11T09:03:02;-4.90;99.90
38910;DHT22;24676;51.360;12.354;2024-01-11T09:05:47;-4.90;99.90
38910;DHT22;24676;51.360;12.354;2024-01-11T09:08:31;-4.70;99.90
38910;DHT22;24676;51.360;12.354;2024-01-11T09:11:16;-4.50;99.90
38910;DHT22;24676;51.360;12.354;2024-01-11T09:14:00;-4.40;99.90
38910;DHT22;24676;51.360;12.354;2024-01-11T09:16:46;-4.20;99.90
38910;DHT22;24676;51.360;12.354;2024-01-11T09:19:32;-3.90;99.90
38910;DHT22;24676;51.360;12.354;2024-01-11T09:22:23;-3.80;99.90
38910;DHT22;24676;51.360;12.354;2024-01-11T09:25:07;-3.50;99.90
38910;DHT22;24676;51.360;12.354;2024-01-11T09:27:52;-3.10;99.90
38910;DHT22;24676;51.360;12.354;2024-01-11T09:30:36;-2.80;99.90
38910;DHT22;24676;51.360;12.354;2024-01-11T09:33:20;-2.60;99.90
38910;DHT22;24676;51.360;12.354;2024-01-11T09:36:05;-2.30;99.90
38910;DHT22;24676;51.360;12.354;2024-01-11T09:38:49;-1.90;99.90
38910;DHT22;24676;51.360;12.354;2024-01-11T09:41:34;-1.20;99.90
38910;DHT22;24676;51.360;12.354;2024-01-11T09:44:20;-0.70;99.90
38910;DHT22;24676;51.360;12.354;2024-01-11T09:47:08;-0.20;97.30
38910;DHT22;24676;51.360;12.354;2024-01-11T09:49:53;0.00;95.40
38910;DHT22;24676;51.360;12.354;2024-01-11T09:52:38;0.00;92.10
38910;DHT22;24676;51.360;12.354;2024-01-11T09:55:23;0.10;97.10
38910;DHT22;24676;51.360;12.354;2024-01-11T09:58:07;0.60;88.00
38910;DHT22;24676;51.360;12.354;2024-01-11T10:00:53;0.90;79.00
38910;DHT22;24676;51.360;12.354;2024-01-11T10:03:41;1.10;77.80
38910;DHT22;24676;51.360;12.354;2024-01-11T10:06:30;0.60;77.60
38910;DHT22;24676;51.360;12.354;2024-01-11T10:09:15;1.00;81.60
38910;DHT22;24676;51.360;12.354;2024-01-11T10:12:00;1.50;77.10
38910;DHT22;24676;51.360;12.354;2024-01-11T10:14:44;1.80;75.40
38910;DHT22;24676;51.360;12.354;2024-01-11T10:17:28;1.60;71.90
38910;DHT22;24676;51.360;12.354;2024-01-11T10:20:13;1.20;76.30
38910;DHT22;24676;51.360;12.354;2024-01-11T10:23:02;1.40;74.40
38910;DHT22;24676;51.360;12.354;2024-01-11T10:25:46;2.10;73.80
38910;DHT22;24676;51.360;12.354;2024-01-11T10:28:30;2.30;70.00
38910;DHT22;24676;51.360;12.354;2024-01-11T10:31:14;2.10;69.70
38910;DHT22;24676;51.360;12.354;2024-01-11T10:34:01;1.20;70.00
38910;DHT22;24676;51.360;12.354;2024-01-11T10:36:46;0.40;76.70
38910;DHT22;24676;51.360;12.354;2024-01-11T10:39:30;0.00;83.60
38910;DHT22;24676;51.360;12.354;2024-01-11T10:42:15;0.30;89.00
38910;DHT22;24676;51.360;12.354;2024-01-11T10:45:02;0.50;90.90
38910;DHT22;24676;51.360;12.354;2024-01-11T10:47:53;1.10;83.40
38910;DHT22;24676;51.360;12.354;2024-01-11T10:50:38;1.40;77.10
38910;DHT22;24676;51.360;12.354;2024-01-11T10:53:36;1.20;76.40
38910;DHT22;24676;51.360;12.354;2024-01-11T10:56:22;1.10;75.90
38910;DHT22;24676;51.360;12.354;2024-01-11T10:59:07;0.90;78.30
38910;DHT22;24676;51.360;12.354;2024-01-11T11:01:55;0.90;79.30
38910;DHT22;24676;51.360;12.354;2024-01-11T11:04:41;0.70;82.60
38910;DHT22;24676;51.360;12.354;2024-01-11T11:07:25;0.80;81.00
38910;DHT22;24676;51.360;12.354;2024-01-11T11:10:11;0.80;82.00
38910;DHT22;24676;51.360;12.354;2024-01-11T11:12:55;1.30;83.20
38910;DHT22;24676;51.360;12.354;2024-01-11T11:15:46;2.00;78.10
38910;DHT22;24676;51.360;12.354;2024-01-11T11:18:32;2.50;72.40
38910;DHT22;24676;51.360;12.354;2024-01-11T11:21:19;2.40;69.90
38910;DHT22;24676;51.360;12.354;2024-01-11T11:24:04;2.60;69.20
38910;DHT22;24676;51.360;12.354;2024-01-11T11:26:48;2.90;70.40
38910;DHT22;24676;51.360;12.354;2024-01-11T11:29:32;3.20;67.50
38910;DHT22;24676;51.360;12.354;2024-01-11T11:32:16;2.80;66.70
38910;DHT22;24676;51.360;12.354;2024-01-11T11:35:01;2.30;69.50
38910;DHT22;24676;51.360;12.354;2024-01-11T11:37:45;1.70;72.50
38910;DHT22;24676;51.360;12.354;2024-01-11T11:40:33;1.40;74.60
38910;DHT22;24676;51.360;12.354;2024-01-11T11:43:21;0.90;77.70
38910;DHT22;24676;51.360;12.354;2024-01-11T11:46:05;0.50;83.40
38910;DHT22;24676;51.360;12.354;2024-01-11T11:48:51;0.30;87.80
38910;DHT22;24676;51.360;12.354;2024-01-11T11:51:36;0.40;91.90
38910;DHT22;24676;51.360;12.354;2024-01-11T11:54:23;0.50;92.00
38910;DHT22;24676;51.360;12.354;2024-01-11T11:57:08;0.60;90.60
38910;DHT22;24676;51.360;12.354;2024-01-11T11:59:53;1.10;89.30
38910;DHT22;24676;51.360;12.354;2024-01-11T12:02:38;1.50;85.40
38910;DHT22;24676;51.360;12.354;2024-01-11T12:05:22;1.70;81.10
38910;DHT22;24676;51.360;12.354;2024-01-11T12:08:06;1.40;78.90
38910;DHT22;24676;51.360;12.354;2024-01-11T12:10:51;1.40;82.50
38910;DHT22;24676;51.360;12.354;2024-01-11T12:13:35;1.20;81.50
38910;DHT22;24676;51.360;12.354;2024-01-11T12:16:19;1.00;86.00
38910;DHT22;24676;51.360;12.354;2024-01-11T12:19:04;1.00;87.20
38910;DHT22;24676;51.360;12.354;2024-01-11T12:21:49;0.90;90.80
38910;DHT22;24676;51.360;12.354;2024-01-11T12:24:33;0.70;90.00
38910;DHT22;24676;51.360;12.354;2024-01-11T12:27:17;0.60;88.90
38910;DHT22;24676;51.360;12.354;2024-01-11T12:30:01;0.50;91.60
38910;DHT22;24676;51.360;12.354;2024-01-11T12:32:46;0.50;92.50
38910;DHT22;24676;51.360;12.354;2024-01-11T12:35:30;0.50;92.10
38910;DHT22;24676;51.360;12.354;2024-01-11T12:38:15;0.40;94.80
38910;DHT22;24676;51.360;12.354;2024-01-11T12:40:59;0.40;96.60
38910;DHT22;24676;51.360;12.354;2024-01-11T12:43:43;0.30;97.80
38910;DHT22;24676;51.360;12.354;2024-01-11T12:46:28;0.20;98.20
38910;DHT22;24676;51.360;12.354;2024-01-11T12:49:12;0.20;97.60
38910;DHT22;24676;51.360;12.354;2024-01-11T12:51:56;0.20;98.90
38910;DHT22;24676;51.360;12.354;2024-01-11T12:54:40;0.20;98.00
38910;DHT22;24676;51.360;12.354;2024-01-11T12:57:24;0.00;98.90
38910;DHT22;24676;51.360;12.354;2024-01-11T13:00:11;0.00;99.90
38910;DHT22;24676;51.360;12.354;2024-01-11T13:02:56;0.00;99.90
38910;DHT22;24676;51.360;12.354;2024-01-11T13:05:40;0.30;99.90
38910;DHT22;24676;51.360;12.354;2024-01-11T13:08:24;0.30;99.90
38910;DHT22;24676;51.360;12.354;2024-01-11T13:11:09;0.40;99.90
38910;DHT22;24676;51.360;12.354;2024-01-11T13:13:53;0.40;99.90
38910;DHT22;24676;51.360;12.354;2024-01-11T13:16:37;0.40;99.90
38910;DHT22;24676;51.360;12.354;2024-01-11T13:19:21;0.30;99.90
38910;DHT22;24676;51.360;12.354;2024-01-11T13:22:05;0.30;99.90
38910;DHT22;24676;51.360;12.354;2024-01-11T13:24:50;0.20;99.90
38910;DHT22;24676;51.360;12.354;2024-01-11T13:27:34;0.10;99.90
38910;DHT22;24676;51.360;12.354;2024-01-11T13:30:18;0.30;99.90
38910;DHT22;24676;51.360;12.354;2024-01-11T13:33:03;0.60;99.90
38910;DHT22;24676;51.360;12.354;2024-01-11T13:35:47;1.00;95.30
38910;DHT22;24676;51.360;12.354;2024-01-11T13:38:31;1.20;88.80
38910;DHT22;24676;51.360;12.354;2024-01-11T13:41:15;1.10;86.50
38910;DHT22;24676;51.360;12.354;2024-01-11T13:44:00;0.80;84.90
38910;DHT22;24676;51.360;12.354;2024-01-11T13:46:44;0.60;83.30
38910;DHT22;24676;51.360;12.354;2024-01-11T13:49:29;0.40;85.30
38910;DHT22;24676;51.360;12.354;2024-01-11T13:52:13;0.20;87.00
38910;DHT22;24676;51.360;12.354;2024-01-11T13:54:58;0.10;86.90
38910;DHT22;24676;51.360;12.354;2024-01-11T13:57:42;0.00;88.50
38910;DHT22;24676;51.360;12.354;2024-01-11T14:00:26;-0.10;89.80
38910;DHT22;24676;51.360;12.354;2024-01-11T14:03:10;-0.20;87.40
38910;DHT22;24676;51.360;12.354;2024-01-11T14:05:54;-0.40;85.90
38910;DHT22;24676;51.360;12.354;2024-01-11T14:08:39;-0.40;88.20
38910;DHT22;24676;51.360;12.354;2024-01-11T14:11:23;-0.50;90.50
38910;DHT22;24676;51.360;12.354;2024-01-11T14:14:07;-0.70;91.50
38910;DHT22;24676;51.360;12.354;2024-01-11T14:16:51;-0.70;92.90
38910;DHT22;24676;51.360;12.354;2024-01-11T14:19:36;-0.80;94.60
38910;DHT22;24676;51.360;12.354;2024-01-11T14:22:20;-0.90;98.90
38910;DHT22;24676;51.360;12.354;2024-01-11T14:25:04;-1.00;99.90
38910;DHT22;24676;51.360;12.354;2024-01-11T14:27:48;-1.10;99.90
38910;DHT22;24676;51.360;12.354;2024-01-11T14:30:33;-1.10;99.90
38910;DHT22;24676;51.360;12.354;2024-01-11T14:33:17;-1.20;99.90
38910;DHT22;24676;51.360;12.354;2024-01-11T14:36:03;-1.30;99.90
38910;DHT22;24676;51.360;12.354;2024-01-11T14:38:47;-1.30;99.90
38910;DHT22;24676;51.360;12.354;2024-01-11T14:41:31;-1.40;99.90
38910;DHT22;24676;51.360;12.354;2024-01-11T14:44:15;-1.50;99.90
38910;DHT22;24676;51.360;12.354;2024-01-11T14:46:59;-1.60;99.90
38910;DHT22;24676;51.360;12.354;2024-01-11T14:49:44;-1.70;99.90
38910;DHT22;24676;51.360;12.354;2024-01-11T14:52:28;-1.80;99.90
38910;DHT22;24676;51.360;12.354;2024-01-11T14:55:12;-1.90;99.90
38910;DHT22;24676;51.360;12.354;2024-01-11T14:57:57;-2.00;99.90
38910;DHT22;24676;51.360;12.354;2024-01-11T15:00:41;-2.10;99.90
38910;DHT22;24676;51.360;12.354;2024-01-11T15:03:25;-2.20;99.90
38910;DHT22;24676;51.360;12.354;2024-01-11T15:06:10;-2.30;99.90
38910;DHT22;24676;51.360;12.354;2024-01-11T15:08:54;-2.30;99.90
38910;DHT22;24676;51.360;12.354;2024-01-11T15:11:38;-2.40;99.90
38910;DHT22;24676;51.360;12.354;2024-01-11T15:14:23;-2.50;99.90
38910;DHT22;24676;51.360;12.354;2024-01-11T15:17:07;-2.60;99.90
38910;DHT22;24676;51.360;12.354;2024-01-11T15:19:52;-2.60;99.90
38910;DHT22;24676;51.360;12.354;2024-01-11T15:22:36;-2.60;99.90
38910;DHT22;24676;51.360;12.354;2024-01-11T15:25:20;-2.50;99.90
38910;DHT22;24676;51.360;12.354;2024-01-11T15:28:04;-2.50;99.90
38910;DHT22;24676;51.360;12.354;2024-01-11T15:30:48;-2.50;99.90
38910;DHT22;24676;51.360;12.354;2024-01-11T15:33:32;-2.50;99.90
38910;DHT22;24676;51.360;12.354;2024-01-11T15:36:17;-2.50;99.90
38910;DHT22;24676;51.360;12.354;2024-01-11T15:39:01;-2.40;99.90
38910;DHT22;24676;51.360;12.354;2024-01-11T15:41:46;-2.40;99.90
38910;DHT22;24676;51.360;12.354;2024-01-11T15:44:31;-2.40;99.90
38910;DHT22;24676;51.360;12.354;2024-01-11T15:47:17;-2.40;99.90
38910;DHT22;24676;51.360;12.354;2024-01-11T15:50:02;-2.30;99.90
38910;DHT22;24676;51.360;12.354;2024-01-11T15:52:52;-2.40;99.90
38910;DHT22;24676;51.360;12.354;2024-01-11T15:55:36;-2.30;99.90
38910;DHT22;24676;51.360;12.354;2024-01-11T15:58:20;-2.30;99.90
38910;DHT22;24676;51.360;12.354;2024-01-11T16:01:05;-2.30;99.90
38910;DHT22;24676;51.360;12.354;2024-01-11T16:03:49;-2.30;99.90
38910;DHT22;24676;51.360;12.354;2024-01-11T16:06:35;-2.20;99.90
38910;DHT22;24676;51.360;12.354;2024-01-11T16:09:20;-2.30;99.90
38910;DHT22;24676;51.360;12.354;2024-01-11T16:12:04;-2.30;99.90
38910;DHT22;24676;51.360;12.354;2024-01-11T16:14:48;-2.30;99.90
38910;DHT22;24676;51.360;12.354;2024-01-11T16:17:32;-2.20;99.90
38910;DHT22;24676;51.360;12.354;2024-01-11T16:20:16;-2.30;99.90
38910;DHT22;24676;51.360;12.354;2024-01-11T16:23:01;-2.30;99.90
38910;DHT22;24676;51.360;12.354;2024-01-11T16:25:45;-2.30;99.90
38910;DHT22;24676;51.360;12.354;2024-01-11T16:28:29;-2.30;99.90
38910;DHT22;24676;51.360;12.354;2024-01-11T16:31:17;-2.30;99.90
38910;DHT22;24676;51.360;12.354;2024-01-11T16:34:02;-2.20;99.90
38910;DHT22;24676;51.360;12.354;2024-01-11T16:36:47;-2.30;99.90
38910;DHT22;24676;51.360;12.354;2024-01-11T16:39:31;-2.30;99.90
38910;DHT22;24676;51.360;12.354;2024-01-11T16:42:16;-2.20;99.90
38910;DHT22;24676;51.360;12.354;2024-01-11T16:45:02;-2.20;99.90
38910;DHT22;24676;51.360;12.354;2024-01-11T16:47:47;-2.20;99.90
38910;DHT22;24676;51.360;12.354;2024-01-11T16:50:32;-2.20;99.90
38910;DHT22;24676;51.360;12.354;2024-01-11T16:53:16;-2.10;99.90
38910;DHT22;24676;51.360;12.354;2024-01-11T16:56:00;-2.20;99.90
38910;DHT22;24676;51.360;12.354;2024-01-11T16:58:45;-2.20;99.90
38910;DHT22;24676;51.360;12.354;2024-01-11T17:01:29;-2.10;99.90
38910;DHT22;24676;51.360;12.354;2024-01-11T17:04:13;-2.10;99.90
38910;DHT22;24676;51.360;12.354;2024-01-11T17:06:58;-2.10;99.90